createdAt,value
2018-02-02T00:00:02.605Z,11.65
2018-02-02T00:02:30.874Z,8.88
2018-02-02T00:05:06.158Z,10.30
2018-02-02T00:07:34.448Z,12.37
2018-02-02T00:10:03.066Z,8.73
2018-02-02T00:12:31.308Z,9.32
2018-02-02T00:15:02.723Z,11.38
2018-02-02T00:17:30.995Z,9.80
2018-02-02T00:20:06.101Z,8.27
2018-02-02T00:22:34.396Z,13.40
2018-02-02T00:25:02.673Z,10.13
2018-02-02T00:27:30.945Z,8.75
2018-02-02T00:30:05.977Z,10.85
2018-02-02T00:32:34.298Z,9.70
2018-02-02T00:35:02.585Z,9.25
2018-02-02T00:37:30.853Z,7.85
2018-02-02T00:40:04.868Z,8.93
2018-02-02T00:42:33.255Z,8.68
2018-02-02T00:45:03.187Z,10.25
2018-02-02T00:47:31.700Z,7.45
2018-02-02T00:50:03.670Z,8.98
2018-02-02T00:52:31.916Z,10.18
2018-02-02T00:55:02.809Z,9.18
2018-02-02T00:57:31.316Z,10.02
2018-02-02T01:00:03.639Z,7.93
2018-02-02T01:02:31.856Z,7.93
2018-02-02T01:05:03.305Z,8.38
2018-02-02T01:07:31.563Z,8.40
2018-02-02T01:10:04.090Z,7.75
2018-02-02T01:12:32.344Z,7.60
2018-02-02T01:15:04.254Z,7.32
2018-02-02T01:17:34.327Z,8.13
2018-02-02T01:20:04.607Z,9.43
2018-02-02T01:22:38.775Z,7.45
2018-02-02T01:25:08.883Z,9.32
2018-02-02T01:27:39.121Z,8.35
2018-02-02T01:30:08.947Z,7.68
2018-02-02T01:32:42.251Z,8.77
2018-02-02T01:35:13.346Z,10.45
2018-02-02T01:37:41.648Z,7.82
2018-02-02T01:40:10.630Z,11.18
2018-02-02T01:42:39.320Z,7.10
2018-02-02T01:45:07.586Z,8.20
2018-02-02T01:47:36.357Z,14.52
2018-02-02T01:50:04.593Z,8.18
2018-02-02T01:52:32.988Z,8.07
2018-02-02T01:55:02.709Z,10.02
2018-02-02T01:57:30.994Z,9.18
2018-02-02T02:00:02.932Z,8.68
2018-02-02T02:02:31.229Z,9.57
2018-02-02T02:05:02.714Z,8.75
2018-02-02T02:07:31.325Z,10.57
2018-02-02T02:10:02.741Z,9.50
2018-02-02T02:12:31.934Z,12.10
2018-02-02T02:15:03.981Z,8.75
2018-02-02T02:17:37.942Z,8.02
2018-02-02T02:20:08.644Z,7.55
2018-02-02T02:22:37.353Z,8.93
2018-02-02T02:25:06.145Z,9.43
2018-02-02T02:27:35.830Z,9.93
2018-02-02T02:30:05.755Z,9.52
2018-02-02T02:32:35.299Z,9.68
2018-02-02T02:35:05.304Z,11.85
2018-02-02T02:37:33.591Z,10.38
2018-02-02T02:40:03.620Z,8.85
2018-02-02T02:42:31.945Z,9.60
2018-02-02T02:45:03.841Z,9.63
2018-02-02T02:47:32.125Z,9.70
2018-02-02T02:50:03.836Z,10.15
2018-02-02T02:52:32.261Z,8.73
2018-02-02T02:55:04.382Z,7.53
2018-02-02T02:57:32.680Z,12.93
2018-02-02T03:00:04.598Z,11.45
2018-02-02T03:02:32.866Z,9.65
2018-02-02T03:05:02.758Z,10.93
2018-02-02T03:07:31.034Z,8.40
2018-02-02T03:10:06.507Z,9.30
2018-02-02T03:12:34.780Z,10.45
2018-02-02T03:15:03.133Z,11.05
2018-02-02T03:17:33.723Z,11.15
2018-02-02T03:20:03.186Z,8.45
2018-02-02T03:22:31.590Z,10.57
2018-02-02T03:25:03.619Z,8.35
2018-02-02T03:27:35.880Z,7.70
2018-02-02T03:30:07.091Z,7.85
2018-02-02T03:32:36.983Z,9.05
2018-02-02T03:35:07.272Z,8.70
2018-02-02T03:37:37.380Z,8.02
2018-02-02T03:40:07.419Z,10.18
2018-02-02T03:42:37.679Z,8.13
2018-02-02T03:45:07.612Z,7.82
2018-02-02T03:47:37.571Z,10.60
2018-02-02T03:50:07.567Z,9.43
2018-02-02T03:52:37.435Z,7.97
2018-02-02T03:55:07.619Z,9.85
2018-02-02T03:57:37.655Z,12.82
2018-02-02T04:00:07.781Z,8.88
2018-02-02T04:02:38.102Z,8.80
2018-02-02T04:05:08.012Z,11.38
2018-02-02T04:07:38.008Z,10.40
2018-02-02T04:10:08.101Z,12.15
2018-02-02T04:12:38.033Z,12.37
2018-02-02T04:15:12.217Z,12.73
2018-02-02T04:17:42.379Z,9.90
2018-02-02T04:20:12.902Z,12.82
2018-02-02T04:22:42.406Z,9.80
2018-02-02T04:25:12.175Z,12.45
2018-02-02T04:27:45.456Z,12.57
2018-02-02T04:30:13.908Z,10.85
2018-02-02T04:32:42.191Z,11.73
2018-02-02T04:35:13.465Z,14.20
2018-02-02T04:37:42.017Z,13.07
2018-02-02T04:40:10.340Z,12.88
2018-02-02T04:42:38.557Z,11.82
2018-02-02T04:45:07.384Z,12.23
2018-02-02T04:47:35.673Z,9.80
2018-02-02T04:50:03.965Z,11.18
2018-02-02T04:52:32.277Z,10.02
2018-02-02T04:55:04.540Z,10.52
2018-02-02T04:57:32.820Z,9.90
2018-02-02T05:00:04.994Z,11.55
2018-02-02T05:02:33.281Z,9.63
2018-02-02T05:05:04.507Z,10.43
2018-02-02T05:07:32.809Z,10.88
2018-02-02T05:10:04.120Z,11.82
2018-02-02T05:12:32.418Z,11.98
2018-02-02T05:15:03.709Z,9.85
2018-02-02T05:17:32.641Z,10.55
2018-02-02T05:20:04.188Z,13.32
2018-02-02T05:22:32.460Z,10.52
2018-02-02T05:25:03.783Z,8.45
2018-02-02T05:27:32.320Z,7.32
2018-02-02T05:30:04.679Z,6.60
2018-02-02T05:32:33.285Z,6.80
2018-02-02T05:35:04.620Z,5.18
2018-02-02T05:37:33.284Z,4.90
2018-02-02T05:40:03.104Z,4.82
2018-02-02T05:42:31.505Z,5.07
2018-02-02T05:45:03.432Z,5.18
2018-02-02T05:47:31.716Z,5.68
2018-02-02T05:50:05.654Z,4.28
2018-02-02T05:52:34.422Z,5.75
2018-02-02T05:55:03.327Z,6.93
2018-02-02T05:57:31.580Z,5.25
2018-02-02T06:00:05.520Z,6.90
2018-02-02T06:02:33.857Z,5.32
2018-02-02T06:05:03.296Z,5.05
2018-02-02T06:07:31.556Z,7.10
2018-02-02T06:10:03.501Z,6.55
2018-02-02T06:12:31.894Z,4.75
2018-02-02T06:15:03.821Z,5.60
2018-02-02T06:17:32.465Z,4.80
2018-02-02T06:20:04.114Z,4.97
2018-02-02T06:22:32.390Z,5.32
2018-02-02T06:25:02.987Z,6.18
2018-02-02T06:27:31.264Z,5.25
2018-02-02T06:30:06.417Z,6.50
2018-02-02T06:32:34.702Z,5.43
2018-02-02T06:35:03.000Z,5.15
2018-02-02T06:37:31.264Z,8.75
2018-02-02T06:40:03.328Z,4.78
2018-02-02T06:42:31.937Z,5.70
2018-02-02T06:45:04.323Z,5.72
2018-02-02T06:47:32.598Z,6.22
2018-02-02T06:50:04.712Z,5.60
2018-02-02T06:52:33.201Z,6.95
2018-02-02T06:55:03.149Z,9.45
2018-02-02T06:57:31.416Z,7.37
2018-02-02T07:00:03.044Z,8.25
2018-02-02T07:02:31.316Z,5.57
2018-02-02T07:05:02.722Z,7.03
2018-02-02T07:07:30.973Z,8.40
2018-02-02T07:10:02.470Z,7.62
2018-02-02T07:12:31.093Z,7.15
2018-02-02T07:15:02.667Z,7.95
2018-02-02T07:17:30.941Z,8.60
2018-02-02T07:20:03.061Z,8.32
2018-02-02T07:22:32.188Z,7.22
2018-02-02T07:25:05.299Z,7.75
2018-02-02T07:27:33.600Z,8.77
2018-02-02T07:30:02.680Z,7.65
2018-02-02T07:32:30.945Z,8.90
2018-02-02T07:35:02.426Z,10.73
2018-02-02T07:37:30.713Z,6.90
2018-02-02T07:40:04.764Z,7.35
2018-02-02T07:42:33.052Z,9.20
2018-02-02T07:45:02.641Z,8.93
2018-02-02T07:47:30.917Z,7.18
2018-02-02T07:50:03.031Z,7.90
2018-02-02T07:52:31.303Z,6.55
2018-02-02T07:55:03.186Z,6.00
2018-02-02T07:57:31.534Z,5.85
2018-02-02T08:00:03.654Z,5.32
2018-02-02T08:02:31.932Z,5.07
2018-02-02T08:05:03.180Z,5.53
2018-02-02T08:07:31.491Z,5.22
2018-02-02T08:10:02.150Z,5.30
2018-02-02T08:12:30.420Z,5.22
2018-02-02T08:15:01.841Z,6.20
2018-02-02T08:17:30.101Z,6.20
2018-02-02T08:20:05.183Z,5.22
2018-02-02T08:22:33.450Z,6.22
2018-02-02T08:25:02.937Z,7.87
2018-02-02T08:27:31.213Z,6.93
2018-02-02T08:30:03.336Z,5.65
2018-02-02T08:32:32.043Z,7.70
2018-02-02T08:35:03.581Z,4.57
2018-02-02T08:37:32.080Z,10.07
2018-02-02T08:40:04.045Z,5.95
2018-02-02T08:42:32.302Z,6.15
2018-02-02T08:45:05.341Z,5.30
2018-02-02T08:47:34.306Z,6.25
2018-02-02T08:50:02.580Z,5.70
2018-02-02T08:52:30.881Z,6.07
2018-02-02T08:55:02.424Z,8.57
2018-02-02T08:57:30.715Z,6.90
2018-02-02T09:00:05.747Z,6.57
2018-02-02T09:02:34.024Z,7.50
2018-02-02T09:05:03.063Z,5.72
2018-02-02T09:07:31.332Z,7.07
2018-02-02T09:10:02.283Z,8.15
2018-02-02T09:12:30.572Z,11.73
2018-02-02T09:15:05.893Z,6.68
2018-02-02T09:17:36.152Z,6.57
2018-02-02T09:20:04.424Z,7.95
2018-02-02T09:22:32.730Z,7.75
2018-02-02T09:25:04.117Z,6.68
2018-02-02T09:27:31.865Z,5.95
2018-02-02T09:30:03.406Z,9.00
2018-02-02T09:32:31.697Z,7.57
2018-02-02T09:35:03.870Z,7.97
2018-02-02T09:37:32.394Z,10.27
2018-02-02T09:40:02.890Z,6.12
2018-02-02T09:42:31.166Z,6.43
2018-02-02T09:45:02.398Z,6.55
2018-02-02T09:47:30.709Z,4.20
2018-02-02T09:50:02.215Z,3.70
2018-02-02T09:52:30.495Z,3.58
2018-02-02T09:55:02.146Z,4.00
2018-02-02T09:57:30.547Z,2.70
2018-02-02T10:00:03.986Z,3.00
2018-02-02T10:02:32.294Z,3.12
2018-02-02T10:05:02.641Z,2.87
2018-02-02T10:07:30.959Z,3.00
2018-02-02T10:10:04.872Z,2.53
2018-02-02T10:12:33.188Z,3.75
2018-02-02T10:15:02.452Z,1.90
2018-02-02T10:17:30.744Z,2.37
2018-02-02T10:20:05.907Z,2.45
2018-02-02T10:22:34.189Z,4.25
2018-02-02T10:25:02.661Z,2.58
2018-02-02T10:27:31.153Z,2.85
2018-02-02T10:30:02.700Z,2.58
2018-02-02T10:32:31.061Z,3.00
2018-02-02T10:35:03.099Z,3.47
2018-02-02T10:37:31.368Z,3.30
2018-02-02T10:40:03.525Z,3.50
2018-02-02T10:42:31.784Z,2.90
2018-02-02T10:45:03.938Z,2.72
2018-02-02T10:47:32.416Z,2.47
2018-02-02T10:50:05.447Z,4.37
2018-02-02T10:52:33.722Z,3.00
2018-02-02T10:55:02.851Z,5.25
2018-02-02T10:57:31.138Z,4.10
2018-02-02T11:00:03.272Z,4.47
2018-02-02T11:02:37.332Z,3.03
2018-02-02T11:05:05.617Z,5.62
2018-02-02T11:07:34.092Z,3.55
2018-02-02T11:10:02.401Z,7.00
2018-02-02T11:12:30.684Z,4.05
2018-02-02T11:15:02.272Z,3.72
2018-02-02T11:17:30.581Z,4.70
2018-02-02T11:20:02.270Z,4.32
2018-02-02T11:22:30.560Z,7.70
2018-02-02T11:25:03.920Z,5.87
2018-02-02T11:27:32.199Z,4.35
2018-02-02T11:30:03.410Z,5.87
2018-02-02T11:32:31.705Z,4.80
2018-02-02T11:35:03.064Z,5.30
2018-02-02T11:37:31.333Z,8.95
2018-02-02T11:40:03.488Z,6.35
2018-02-02T11:42:31.783Z,6.55
2018-02-02T11:45:02.320Z,7.37
2018-02-02T11:47:30.604Z,7.72
2018-02-02T11:50:04.556Z,8.05
2018-02-02T11:52:32.888Z,7.80
2018-02-02T11:55:02.765Z,9.68
2018-02-02T11:57:31.080Z,9.57
2018-02-02T12:00:02.435Z,6.72
2018-02-02T12:02:30.687Z,9.90
2018-02-02T12:05:05.792Z,8.65
2018-02-02T12:07:34.088Z,10.07
2018-02-02T12:10:02.662Z,12.33
2018-02-02T12:12:30.948Z,11.27
2018-02-02T12:15:05.968Z,11.27
2018-02-02T12:17:34.236Z,11.43
2018-02-02T12:20:05.488Z,8.43
2018-02-02T12:25:38.577Z,10.60
2018-02-02T12:31:28.601Z,9.40
2018-02-02T12:34:01.437Z,9.80
2018-02-02T12:36:31.682Z,7.67
2018-02-02T12:38:59.937Z,8.10
2018-02-02T12:41:28.248Z,8.43
2018-02-02T12:43:56.522Z,8.03
2018-02-02T12:46:25.031Z,7.87
2018-02-02T12:48:58.296Z,5.50
2018-02-02T12:51:26.583Z,6.23
2018-02-02T12:53:54.847Z,5.10
2018-02-02T12:56:23.121Z,5.93
2018-02-02T12:58:51.396Z,7.03
2018-02-02T13:01:19.704Z,5.80
2018-02-02T13:03:47.965Z,5.63
2018-02-02T13:06:17.724Z,6.93
2018-02-02T13:08:46.032Z,6.43
2018-02-02T13:11:14.320Z,5.30
2018-02-02T13:13:42.582Z,5.00
2018-02-02T13:16:11.082Z,4.73
2018-02-02T13:18:39.569Z,4.63
2018-02-02T13:21:07.853Z,3.20
2018-02-02T13:23:36.141Z,2.43
2018-02-02T13:26:04.420Z,2.80
2018-02-02T13:28:32.707Z,4.43
2018-02-02T13:31:00.961Z,2.43
2018-02-02T13:33:30.148Z,2.30
2018-02-02T13:35:58.419Z,2.00
2018-02-02T13:38:26.684Z,4.13
2018-02-02T13:40:54.978Z,2.53
2018-02-02T13:43:23.467Z,3.30
2018-02-02T13:45:51.913Z,3.77
2018-02-02T13:48:20.239Z,2.73
2018-02-02T13:50:48.588Z,4.13
2018-02-02T13:53:16.864Z,2.50
2018-02-02T13:55:45.503Z,2.27
2018-02-02T13:58:14.796Z,2.77
2018-02-02T14:00:43.256Z,2.60
2018-02-02T14:03:11.522Z,2.20
2018-02-02T14:05:39.809Z,2.10
2018-02-02T14:08:08.075Z,2.33
2018-02-02T14:10:36.345Z,3.73
2018-02-02T14:13:04.936Z,2.43
2018-02-02T14:15:33.684Z,2.77
2018-02-02T14:18:02.179Z,3.57
2018-02-02T14:20:30.452Z,2.43
2018-02-02T14:22:58.864Z,3.10
2018-02-02T14:25:31.083Z,3.23
2018-02-02T14:27:59.340Z,4.00
2018-02-02T14:30:27.921Z,2.87
2018-02-02T14:32:56.301Z,2.97
2018-02-02T14:35:24.571Z,4.30
2018-02-02T14:37:52.829Z,2.30
2018-02-02T14:40:21.117Z,4.70
2018-02-02T14:42:49.399Z,3.87
2018-02-02T14:45:17.680Z,3.10
2018-02-02T14:47:46.116Z,3.10
2018-02-02T14:50:14.390Z,2.80
2018-02-02T14:52:43.240Z,3.83
2018-02-02T14:55:11.510Z,2.83
2018-02-02T14:57:40.632Z,20.33
2018-02-02T15:00:08.912Z,15.07
2018-02-02T15:02:37.185Z,2.87
2018-02-02T15:05:06.141Z,2.30
2018-02-02T15:07:34.410Z,1.73
2018-02-02T15:10:02.688Z,3.17
2018-02-02T15:12:30.971Z,2.63
2018-02-02T15:15:02.456Z,1.50
2018-02-02T15:17:30.822Z,2.40
2018-02-02T15:20:02.390Z,2.03
2018-02-02T15:22:32.080Z,1.13
2018-02-02T15:25:03.938Z,3.80
2018-02-02T15:27:32.212Z,6.33
2018-02-02T15:30:04.134Z,4.07
2018-02-02T15:32:32.551Z,12.00
2018-02-02T15:35:03.567Z,54.80
2018-02-02T15:37:32.096Z,13.67
2018-02-02T15:40:02.055Z,7.33
2018-02-02T15:42:30.329Z,17.00
2018-02-02T15:45:03.173Z,14.17
2018-02-02T15:47:31.831Z,6.83
2018-02-02T15:50:01.785Z,5.27
2018-02-02T15:52:30.335Z,8.50
2018-02-02T15:55:01.839Z,2.20
2018-02-02T15:57:30.181Z,1.80
2018-02-02T16:00:04.979Z,13.43
2018-02-02T16:02:33.869Z,4.73
2018-02-02T16:05:02.119Z,16.43
2018-02-02T16:07:30.408Z,1.77
2018-02-02T16:10:02.476Z,1.87
2018-02-02T16:12:30.760Z,2.20
2018-02-02T16:15:01.992Z,2.57
2018-02-02T16:17:31.409Z,6.70
2018-02-02T16:20:02.592Z,2.97
2018-02-02T16:22:30.865Z,2.97
2018-02-02T16:25:01.731Z,2.85
2018-02-02T16:27:30.164Z,3.05
2018-02-02T16:30:04.454Z,3.58
2018-02-02T16:32:32.769Z,3.50
2018-02-02T16:35:01.964Z,4.78
2018-02-02T16:37:30.248Z,4.85
2018-02-02T16:40:04.203Z,4.47
2018-02-02T16:42:32.505Z,4.78
2018-02-02T16:45:01.930Z,4.40
2018-02-02T16:47:30.248Z,4.62
2018-02-02T16:50:01.567Z,5.68
2018-02-02T16:52:29.853Z,148.23
2018-02-02T16:55:05.057Z,12.93
2018-02-02T16:57:33.322Z,5.87
2018-02-02T17:00:01.972Z,5.32
2018-02-02T17:02:30.303Z,5.30
2018-02-02T17:05:02.434Z,10.80
2018-02-02T17:07:31.232Z,8.20
2018-02-02T17:10:02.961Z,8.23
2018-02-02T17:12:31.258Z,10.20
2018-02-02T17:15:03.421Z,8.77
2018-02-02T17:17:31.696Z,9.10
2018-02-02T17:20:03.822Z,9.05
2018-02-02T17:22:32.123Z,14.18
2018-02-02T17:25:03.047Z,11.40
2018-02-02T17:27:31.357Z,13.88
2018-02-02T17:30:02.851Z,13.62
2018-02-02T17:32:31.149Z,9.52
2018-02-02T17:35:02.641Z,11.80
2018-02-02T17:37:31.737Z,14.68
2018-02-02T17:40:05.046Z,15.07
2018-02-02T17:42:33.324Z,11.65
2018-02-02T17:45:02.567Z,12.80
2018-02-02T17:47:31.481Z,14.25
2018-02-02T17:50:03.342Z,12.73
2018-02-02T17:52:31.702Z,13.65
2018-02-02T17:55:03.044Z,13.30
2018-02-02T17:57:31.350Z,13.13
2018-02-02T18:00:02.688Z,13.90
2018-02-02T18:05:37.081Z,14.50
2018-02-02T18:08:05.393Z,16.17
2018-02-02T18:10:33.696Z,16.00
2018-02-02T18:13:02.004Z,15.95
2018-02-02T18:15:30.343Z,21.90
2018-02-02T18:17:59.000Z,17.50
2018-02-02T18:20:27.301Z,17.08
2018-02-02T18:22:55.869Z,38.88
2018-02-02T18:25:24.185Z,93.68
2018-02-02T18:27:52.648Z,24.07
2018-02-02T18:30:20.953Z,21.83
2018-02-02T18:32:49.262Z,21.92
2018-02-02T18:35:18.381Z,35.42
2018-02-02T18:37:46.718Z,29.30
2018-02-02T18:40:15.748Z,24.75
2018-02-02T18:42:44.045Z,22.83
2018-02-02T18:45:12.368Z,21.52
2018-02-02T18:47:40.748Z,20.65
2018-02-02T18:50:09.036Z,24.15
2018-02-02T18:52:37.341Z,23.12
2018-02-02T18:55:05.649Z,46.90
2018-02-02T18:57:33.973Z,75.03
2018-02-02T19:00:02.277Z,27.60
2018-02-02T19:02:30.605Z,37.33
2018-02-02T19:05:02.668Z,30.95
2018-02-02T19:07:30.968Z,41.28
2018-02-02T19:10:02.218Z,48.95
2018-02-02T19:12:30.776Z,33.27
2018-02-02T19:15:02.836Z,20.23
2018-02-02T19:17:31.144Z,32.30
2018-02-02T19:20:02.712Z,22.40
2018-02-02T19:22:31.075Z,32.33
2018-02-02T19:25:02.629Z,24.05
2018-02-02T19:27:31.086Z,102.70
2018-02-02T19:30:02.651Z,136.50
2018-02-02T19:32:30.932Z,32.40
2018-02-02T19:35:02.764Z,24.70
2018-02-02T19:37:31.814Z,27.75
2018-02-02T19:40:03.591Z,26.65
2018-02-02T19:42:31.887Z,30.73
2018-02-02T19:45:03.475Z,30.10
2018-02-02T19:47:31.803Z,34.28
2018-02-02T19:50:03.453Z,29.17
2018-02-02T19:52:31.765Z,28.75
2018-02-02T19:55:03.624Z,28.15
2018-02-02T19:57:33.015Z,26.55
2018-02-02T20:00:03.209Z,25.80
2018-02-02T20:02:31.508Z,25.80
2018-02-02T20:05:02.858Z,24.48
2018-02-02T20:07:31.161Z,25.35
2018-02-02T20:10:01.958Z,29.98
2018-02-02T20:12:30.313Z,28.65
2018-02-02T20:15:01.998Z,31.40
2018-02-02T20:17:30.371Z,26.30
2018-02-02T20:20:05.553Z,28.30
2018-02-02T20:22:33.848Z,26.55
2018-02-02T20:25:02.166Z,28.58
2018-02-02T20:27:30.607Z,28.20
2018-02-02T20:30:02.530Z,30.20
2018-02-02T20:32:30.800Z,27.80
2018-02-02T20:35:03.069Z,25.70
2018-02-02T20:37:31.404Z,24.65
2018-02-02T20:40:03.582Z,27.67
2018-02-02T20:42:31.911Z,25.63
2018-02-02T20:45:03.950Z,25.17
2018-02-02T20:47:32.249Z,27.48
2018-02-02T20:50:02.402Z,26.73
2018-02-02T20:52:30.728Z,29.52
2018-02-02T20:55:04.684Z,30.07
2018-02-02T20:57:32.987Z,24.90
2018-02-02T21:00:02.410Z,30.42
2018-02-02T21:02:30.715Z,28.65
2018-02-02T21:05:02.835Z,28.58
2018-02-02T21:07:31.152Z,29.03
2018-02-02T21:10:02.890Z,29.02
2018-02-02T21:12:31.192Z,30.23
2018-02-02T21:15:02.917Z,26.92
2018-02-02T21:17:31.240Z,29.87
2018-02-02T21:20:02.092Z,28.55
2018-02-02T21:22:30.372Z,28.35
2018-02-02T21:25:06.137Z,31.42
2018-02-02T21:27:34.438Z,34.75
2018-02-02T21:30:02.720Z,34.47
2018-02-02T21:32:31.049Z,33.67
2018-02-02T21:35:03.254Z,38.93
2018-02-02T21:37:31.580Z,34.07
2018-02-02T21:40:02.792Z,37.37
2018-02-02T21:42:31.111Z,35.78
2018-02-02T21:45:03.137Z,28.73
2018-02-02T21:47:31.426Z,29.60
2018-02-02T21:50:02.113Z,31.77
2018-02-02T21:52:30.613Z,34.17
2018-02-02T21:55:02.265Z,30.02
2018-02-02T21:57:30.574Z,26.43
2018-02-02T22:00:02.173Z,27.67
2018-02-02T22:02:30.476Z,25.20
2018-02-02T22:05:05.546Z,26.87
2018-02-02T22:07:33.862Z,27.13
2018-02-02T22:10:02.152Z,26.95
2018-02-02T22:12:30.468Z,28.47
2018-02-02T22:15:02.268Z,26.30
2018-02-02T22:17:30.611Z,27.98
2018-02-02T22:20:03.544Z,27.90
2018-02-02T22:22:32.173Z,25.37
2018-02-02T22:25:02.142Z,26.95
2018-02-02T22:27:30.728Z,26.20
2018-02-02T22:30:02.426Z,27.50
2018-02-02T22:32:30.869Z,30.17
2018-02-02T22:35:02.202Z,25.90
2018-02-02T22:37:30.562Z,27.70
2018-02-02T22:40:01.940Z,29.37
2018-02-02T22:42:30.563Z,25.15
2018-02-02T22:45:05.494Z,26.73
2018-02-02T22:47:33.818Z,26.77
2018-02-02T22:50:02.125Z,26.80
2018-02-02T22:52:30.454Z,24.98
2018-02-02T22:55:02.326Z,27.70
2018-02-02T22:57:30.673Z,26.90
2018-02-02T23:00:05.760Z,27.00
2018-02-02T23:02:34.048Z,29.95
2018-02-02T23:05:03.085Z,33.00
2018-02-02T23:07:31.517Z,28.20
2018-02-02T23:10:02.128Z,27.40
2018-02-02T23:12:30.454Z,27.40
2018-02-02T23:15:02.145Z,28.85
2018-02-02T23:17:30.456Z,29.97
2018-02-02T23:20:01.953Z,29.48
2018-02-02T23:22:30.650Z,29.70
2018-02-02T23:25:05.656Z,32.55
2018-02-02T23:27:33.976Z,29.55
2018-02-02T23:30:02.275Z,27.83
2018-02-02T23:32:30.588Z,29.17
2018-02-02T23:35:05.666Z,27.85
2018-02-02T23:37:34.030Z,27.85
2018-02-02T23:40:02.340Z,30.83
2018-02-02T23:42:30.653Z,29.20
2018-02-02T23:45:02.012Z,33.40
2018-02-02T23:47:30.313Z,30.77
2018-02-02T23:50:01.585Z,33.13
2018-02-02T23:52:29.893Z,30.43
2018-02-02T23:55:03.842Z,31.60
2018-02-02T23:57:32.161Z,34.65
